createdAt,value
2022-12-01T00:02:51.695Z,99154.44
2022-12-01T00:07:54.109Z,99150.25
2022-12-01T00:13:06.834Z,99143.00
2022-12-01T00:18:10.689Z,99145.75
2022-12-01T00:23:12.748Z,99145.00
2022-12-01T00:28:14.582Z,99147.75
2022-12-01T00:33:16.438Z,99142.00
2022-12-01T00:38:21.316Z,99139.97
2022-12-01T00:43:24.375Z,99122.50
2022-12-01T00:48:26.287Z,99133.66
2022-12-01T00:53:28.194Z,99140.50
2022-12-01T00:58:30.067Z,99149.56
2022-12-01T01:03:32.792Z,99143.34
2022-12-01T01:08:35.343Z,99141.53
2022-12-01T01:13:38.569Z,99139.88
2022-12-01T01:18:40.594Z,99140.88
2022-12-01T01:23:43.178Z,99145.63
2022-12-01T01:28:46.391Z,99146.81
2022-12-01T01:33:49.965Z,99157.88
2022-12-01T01:38:53.449Z,99149.19
2022-12-01T01:44:24.849Z,99144.91
2022-12-01T01:49:26.856Z,99151.56
2022-12-01T01:54:35.261Z,99154.69
2022-12-01T01:59:43.078Z,99152.78
2022-12-01T02:04:51.519Z,99157.72
2022-12-01T02:09:55.546Z,99147.94
2022-12-01T02:15:17.313Z,99141.59
2022-12-01T02:20:42.763Z,99136.28
2022-12-01T02:26:14.886Z,99147.50
2022-12-01T02:31:22.794Z,99152.47
2022-12-01T02:36:32.844Z,99148.72
2022-12-01T02:41:42.582Z,99158.63
2022-12-01T02:46:49.728Z,99146.63
2022-12-01T02:51:54.884Z,99158.44
2022-12-01T02:56:56.787Z,99154.13
2022-12-01T03:02:24.746Z,99156.13
2022-12-01T03:07:54.310Z,99147.25
2022-12-01T03:13:02.304Z,99146.50
2022-12-01T03:18:09.645Z,99151.72
2022-12-01T03:23:16.811Z,99144.03
2022-12-01T03:28:23.000Z,99150.47
2022-12-01T03:33:31.673Z,99141.22
2022-12-01T03:38:36.846Z,99151.56
2022-12-01T03:43:43.765Z,99153.94
2022-12-01T03:48:46.773Z,99151.28
2022-12-01T03:53:48.822Z,99152.28
2022-12-01T03:58:56.660Z,99159.22
2022-12-01T04:04:12.201Z,99160.16
2022-12-01T04:09:14.133Z,99166.19
2022-12-01T04:14:16.013Z,99168.19
2022-12-01T04:19:18.071Z,99162.41
2022-12-01T04:24:20.133Z,99163.97
2022-12-01T04:29:22.226Z,99163.06
2022-12-01T04:34:24.397Z,99171.66
2022-12-01T04:39:26.333Z,99160.59
2022-12-01T04:44:34.294Z,99157.28
2022-12-01T04:49:37.410Z,99160.75
2022-12-01T04:54:39.223Z,99161.75
2022-12-01T04:59:41.288Z,99168.34
2022-12-01T05:04:48.310Z,99156.03
2022-12-01T05:09:50.560Z,99167.09
2022-12-01T05:14:53.013Z,99171.31
2022-12-01T05:20:13.429Z,99171.31
2022-12-01T05:25:15.367Z,99173.28
2022-12-01T05:30:17.368Z,99175.13
2022-12-01T05:35:19.511Z,99170.81
2022-12-01T05:40:21.575Z,99180.88
2022-12-01T05:45:24.515Z,99180.16
2022-12-01T05:50:28.150Z,99187.00
2022-12-01T05:55:32.632Z,99196.50
2022-12-01T06:00:37.608Z,99192.13
2022-12-01T06:05:44.964Z,99194.59
2022-12-01T06:10:47.433Z,99180.06
2022-12-01T06:16:04.889Z,99195.44
2022-12-01T06:21:07.615Z,99191.66
2022-12-01T06:26:09.494Z,99194.38
2022-12-01T06:31:11.390Z,99203.97
2022-12-01T06:36:13.519Z,99197.94
2022-12-01T06:41:15.481Z,99204.06
2022-12-01T06:46:20.231Z,99212.56
2022-12-01T06:51:23.201Z,99209.09
2022-12-01T06:56:26.220Z,99207.44
2022-12-01T07:01:28.765Z,99214.28
2022-12-01T07:06:32.417Z,99211.91
2022-12-01T07:11:36.921Z,99211.09
2022-12-01T07:16:39.142Z,99230.47
2022-12-01T07:21:41.334Z,99232.28
2022-12-01T07:26:43.709Z,99232.13
2022-12-01T07:31:45.684Z,99237.25
2022-12-01T07:36:47.993Z,99241.47
2022-12-01T07:41:49.922Z,99238.00
2022-12-01T07:46:52.063Z,99242.19
2022-12-01T07:51:53.950Z,99233.78
2022-12-01T07:56:55.937Z,99238.00
2022-12-01T08:01:58.031Z,99243.19
2022-12-01T08:07:00.086Z,99246.84
2022-12-01T08:12:01.905Z,99248.56
2022-12-01T08:17:03.713Z,99251.78
2022-12-01T08:22:05.596Z,99256.25
2022-12-01T08:27:07.561Z,99253.69
2022-12-01T08:32:09.884Z,99251.13
2022-12-01T08:37:11.939Z,99253.44
2022-12-01T08:42:13.975Z,99250.94
2022-12-01T08:47:18.897Z,99251.13
2022-12-01T08:52:21.839Z,99258.81
2022-12-01T08:57:23.907Z,99264.00
2022-12-01T09:02:26.184Z,99264.00
2022-12-01T09:07:29.010Z,99260.44
2022-12-01T09:12:31.353Z,99261.19
2022-12-01T09:17:33.646Z,99263.75
2022-12-01T09:22:35.603Z,99268.72
2022-12-01T09:27:37.634Z,99264.66
2022-12-01T09:32:39.729Z,99263.75
2022-12-01T09:37:41.938Z,99262.59
2022-12-01T09:42:47.570Z,99258.88
2022-12-01T09:47:50.100Z,99250.28
2022-12-01T09:52:58.202Z,99259.53
2022-12-01T09:58:03.179Z,99241.50
2022-12-01T10:03:35.846Z,99247.22
2022-12-01T10:08:51.724Z,99246.56
2022-12-01T10:13:54.014Z,99242.50
2022-12-01T10:19:22.103Z,99243.34
2022-12-01T10:24:33.046Z,99246.25
2022-12-01T10:29:47.970Z,99241.94
2022-12-01T10:34:50.507Z,99233.09
2022-12-01T10:39:55.315Z,99234.56
2022-12-01T10:45:03.398Z,99218.31
2022-12-01T10:50:05.937Z,99217.38
2022-12-01T10:55:44.905Z,99216.47
2022-12-01T11:01:00.601Z,99213.91
2022-12-01T11:06:06.989Z,99208.06
2022-12-01T11:11:30.539Z,99212.44
2022-12-01T11:16:35.365Z,99210.78
2022-12-01T11:21:52.062Z,99215.91
2022-12-01T11:26:55.381Z,99213.25
2022-12-01T11:32:02.020Z,99210.34
2022-12-01T11:37:09.151Z,99199.84
2022-12-01T11:42:13.844Z,99199.50
2022-12-01T11:47:24.378Z,99189.25
2022-12-01T11:52:36.854Z,99191.72
2022-12-01T11:57:43.109Z,99196.84
2022-12-01T12:03:03.881Z,99189.34
2022-12-01T12:08:18.382Z,99186.13
2022-12-01T12:13:35.751Z,99186.13
2022-12-01T12:19:06.154Z,99180.09
2022-12-01T12:24:26.015Z,99174.06
2022-12-01T12:29:43.023Z,99178.09
2022-12-01T12:34:45.135Z,99171.88
2022-12-01T12:40:08.801Z,99179.47
2022-12-01T12:45:20.165Z,99183.03
2022-12-01T12:50:54.082Z,99179.75
2022-12-01T12:56:03.318Z,99169.31
2022-12-01T13:01:05.830Z,99164.28
2022-12-01T13:06:20.534Z,99173.63
2022-12-01T13:11:29.335Z,99171.16
2022-12-01T13:16:36.940Z,99173.06
2022-12-01T13:21:44.790Z,99166.28
2022-12-01T13:26:49.679Z,99172.41
2022-12-01T13:31:54.464Z,99177.06
2022-12-01T13:36:56.850Z,99183.00
2022-12-01T13:42:20.190Z,99176.63
2022-12-01T13:47:24.802Z,99180.09
2022-12-01T13:52:31.465Z,99169.84
2022-12-01T13:57:44.365Z,99170.50
2022-12-01T14:02:46.480Z,99165.38
2022-12-01T14:07:54.050Z,99169.84
2022-12-01T14:13:19.982Z,99165.66
2022-12-01T14:18:39.554Z,99168.03
2022-12-01T14:24:01.416Z,99165.47
2022-12-01T14:29:06.251Z,99150.28
2022-12-01T14:34:18.783Z,99157.06
2022-12-01T14:39:28.110Z,99153.50
2022-12-01T14:44:55.536Z,99153.75
2022-12-01T14:50:27.056Z,99156.66
2022-12-01T14:55:41.942Z,99156.75
2022-12-01T15:01:05.310Z,99152.56
2022-12-01T15:06:08.813Z,99147.69
2022-12-01T15:11:25.616Z,99142.56
2022-12-01T15:16:32.681Z,99137.72
2022-12-01T15:21:34.877Z,99140.28
2022-12-01T15:26:47.110Z,99151.25
2022-12-01T15:31:53.960Z,99144.66
2022-12-01T15:36:57.175Z,99143.09
2022-12-01T15:41:59.852Z,99145.56
2022-12-01T15:47:36.161Z,99144.75
2022-12-01T15:52:43.125Z,99146.41
2022-12-01T15:57:47.338Z,99146.66
2022-12-01T16:02:53.624Z,99150.13
2022-12-01T16:08:13.429Z,99151.22
2022-12-01T16:14:03.037Z,99155.50
2022-12-01T16:19:08.285Z,99159.81
2022-12-01T16:24:18.674Z,99154.69
2022-12-01T16:29:23.047Z,99163.94
2022-12-01T16:34:45.157Z,99153.13
2022-12-01T16:39:47.548Z,99154.19
2022-12-01T16:44:52.058Z,99165.28
2022-12-01T16:49:54.540Z,99159.06
2022-12-01T16:54:56.606Z,99162.63
2022-12-01T16:59:58.545Z,99167.75
2022-12-01T17:05:00.748Z,99158.50
2022-12-01T17:10:02.977Z,99156.69
2022-12-01T17:15:05.816Z,99157.50
2022-12-01T17:20:09.014Z,99151.72
2022-12-01T17:25:11.185Z,99153.38
2022-12-01T17:30:13.967Z,99156.50
2022-12-01T17:35:16.195Z,99158.25
2022-12-01T17:40:18.848Z,99153.78
2022-12-01T17:45:20.891Z,99152.88
2022-12-01T17:50:23.018Z,99161.94
2022-12-01T17:55:24.979Z,99168.69
2022-12-01T18:00:27.045Z,99158.47
2022-12-01T18:05:29.621Z,99162.66
2022-12-01T18:10:31.657Z,99164.31
2022-12-01T18:15:34.865Z,99166.88
2022-12-01T18:20:43.935Z,99169.44
2022-12-01T18:25:46.088Z,99164.50
2022-12-01T18:30:49.448Z,99161.94
2022-12-01T18:35:52.435Z,99161.03
2022-12-01T18:40:59.219Z,99157.47
2022-12-01T18:46:03.860Z,99156.47
2022-12-01T18:51:07.916Z,99157.19
2022-12-01T18:56:12.116Z,99146.03
2022-12-01T19:01:18.782Z,99149.34
2022-12-01T19:06:21.018Z,99145.69
2022-12-01T19:11:22.989Z,99156.59
2022-12-01T19:16:25.756Z,99145.50
2022-12-01T19:21:28.346Z,99142.22
2022-12-01T19:26:30.583Z,99140.56
2022-12-01T19:31:32.741Z,99145.69
2022-12-01T19:36:37.093Z,99140.47
2022-12-01T19:41:39.000Z,99138.84
2022-12-01T19:46:41.570Z,99137.09
2022-12-01T19:51:43.540Z,99138.19
2022-12-01T19:56:46.349Z,99144.22
2022-12-01T20:01:48.593Z,99134.72
2022-12-01T20:06:50.548Z,99137.28
2022-12-01T20:11:53.894Z,99133.88
2022-12-01T20:16:56.213Z,99142.22
2022-12-01T20:21:58.349Z,99141.22
2022-12-01T20:27:00.815Z,99135.28
2022-12-01T20:32:06.011Z,99128.50
2022-12-01T20:37:08.085Z,99125.75
2022-12-01T20:42:12.461Z,99122.19
2022-12-01T20:47:16.979Z,99126.41
2022-12-01T20:52:18.910Z,99126.16
2022-12-01T20:57:21.048Z,99111.50
2022-12-01T21:02:23.037Z,99114.81
2022-12-01T21:07:25.957Z,99111.25
2022-12-01T21:12:47.948Z,99115.53
2022-12-01T21:17:58.478Z,99107.94
2022-12-01T21:23:12.524Z,99107.13
2022-12-01T21:28:24.264Z,99111.41
2022-12-01T21:33:37.143Z,99111.41
2022-12-01T21:38:39.076Z,99112.25
2022-12-01T21:43:41.068Z,99113.91
2022-12-01T21:48:44.154Z,99106.94
2022-12-01T21:53:47.415Z,99108.59
2022-12-01T21:58:50.523Z,99098.53
2022-12-01T22:03:54.156Z,99100.34
2022-12-01T22:09:18.877Z,99096.88
2022-12-01T22:14:29.110Z,99093.50
2022-12-01T22:19:38.142Z,99096.06
2022-12-01T22:24:47.484Z,99101.25
2022-12-01T22:29:53.216Z,99099.81
2022-12-01T22:34:59.083Z,99098.16
2022-12-01T22:40:01.280Z,99096.31
2022-12-01T22:45:24.186Z,99080.88
2022-12-01T22:50:30.727Z,99086.91
2022-12-01T22:55:32.555Z,99081.88
2022-12-01T23:00:34.831Z,99080.97
2022-12-01T23:05:37.082Z,99076.66
2022-12-01T23:10:40.820Z,99072.44
2022-12-01T23:15:47.603Z,99067.41
2022-12-01T23:20:53.023Z,99052.97
2022-12-01T23:25:55.094Z,99057.28
2022-12-01T23:30:59.311Z,99049.69
2022-12-01T23:36:10.853Z,99046.19
2022-12-01T23:41:33.479Z,99045.19
2022-12-01T23:46:36.715Z,99043.56
2022-12-01T23:51:42.764Z,99034.94
2022-12-01T23:56:51.764Z,99028.19
